Venancio Aires, Brazil
Current Conditions -  °F | °C
As of 3:00 PM on Thursday 27 Nov 2014 (Local Time) from SBPA Reporting Station
Broken Clouds Broken Clouds  
Wind Chill: 79°   Ceiling: 8000
Heat Index: 81°   Visibility: 6mi
Dew Point: 64°   Wind: 13mph
Humidity: 61%   Direction: 160°SSE
Pressure: 29.94"   Gusts: NA
Location:  29.61°S, 52.19°W
Report Text: SBPA 271700Z 16011KT 9999 SCT030 BKN080 26/18 Q1014
Loading
Personal Weather Stations






























Interactive Weather Map New forecast layout! Learn more

10-Day Weather Forecast

Advertisements
Track Severe Weather on mobile